CYP470 OJAI-LCLK
Flight info
| Callsign | CYP470 |
|---|---|
| Flight time | N/A |
| Altitude | 30000 |
| Route | MUVIN L53 TAPUZ W13 VELOX N131 EMEDA |
| Aircraft | A320/M-SDE3FGHIRWY/LB1 |
Departure
| Time | 2026-05-08 06:31 |
|---|---|
| Airport | Queen Alia International Airport (OJAI) |
Arrival
| Time | N/A |
|---|---|
| Airport | Larnaca International Airport (LCLK) |
| Time | Latitude | Longitude | Altitude | Speed | Heading |
|---|---|---|---|---|---|
| 2026-05-08 06:17 | 31.72090 | 35.99013 | 2418 ft | 0 kts | 351° |
| 2026-05-08 06:17 | 31.72085 | 35.99014 | 2418 ft | 3 kts | 351° |
| 2026-05-08 06:18 | 31.72064 | 35.99018 | 2418 ft | 3 kts | 351° |
| 2026-05-08 06:18 | 31.72042 | 35.99022 | 2418 ft | 3 kts | 8° |
| 2026-05-08 06:18 | 31.72023 | 35.99013 | 2418 ft | 3 kts | 45° |
| 2026-05-08 06:18 | 31.72011 | 35.98993 | 2418 ft | 3 kts | 78° |
| 2026-05-08 06:19 | 31.72010 | 35.98986 | 2418 ft | 2 kts | 80° |
| 2026-05-08 06:19 | 31.72013 | 35.99010 | 2418 ft | 3 kts | 80° |
| 2026-05-08 06:19 | 31.72016 | 35.99028 | 2418 ft | 0 kts | 80° |
| 2026-05-08 06:21 | 31.72016 | 35.99029 | 2418 ft | 1 kts | 80° |
| 2026-05-08 06:21 | 31.72024 | 35.99079 | 2418 ft | 8 kts | 79° |
| 2026-05-08 06:21 | 31.72033 | 35.99137 | 2418 ft | 6 kts | 79° |
| 2026-05-08 06:22 | 31.72044 | 35.99189 | 2418 ft | 9 kts | 69° |
| 2026-05-08 06:22 | 31.72068 | 35.99254 | 2417 ft | 10 kts | 69° |
| 2026-05-08 06:22 | 31.72084 | 35.99348 | 2418 ft | 12 kts | 80° |
| 2026-05-08 06:22 | 31.72099 | 35.99435 | 2418 ft | 9 kts | 70° |
| 2026-05-08 06:23 | 31.72141 | 35.99473 | 2418 ft | 7 kts | 12° |
| 2026-05-08 06:23 | 31.72207 | 35.99465 | 2418 ft | 11 kts | 351° |
| 2026-05-08 06:23 | 31.72276 | 35.99452 | 2418 ft | 9 kts | 351° |
| 2026-05-08 06:23 | 31.72369 | 35.99433 | 2418 ft | 16 kts | 350° |
| 2026-05-08 06:24 | 31.72485 | 35.99410 | 2418 ft | 18 kts | 350° |
| 2026-05-08 06:24 | 31.72572 | 35.99393 | 2418 ft | 12 kts | 350° |
| 2026-05-08 06:24 | 31.72655 | 35.99376 | 2418 ft | 11 kts | 351° |
| 2026-05-08 06:24 | 31.72700 | 35.99367 | 2418 ft | 6 kts | 348° |
| 2026-05-08 06:25 | 31.72735 | 35.99335 | 2417 ft | 7 kts | 296° |
| 2026-05-08 06:25 | 31.72733 | 35.99286 | 2417 ft | 7 kts | 260° |
| 2026-05-08 06:25 | 31.72725 | 35.99234 | 2418 ft | 6 kts | 260° |
| 2026-05-08 06:25 | 31.72718 | 35.99189 | 2418 ft | 8 kts | 259° |
| 2026-05-08 06:26 | 31.72704 | 35.99100 | 2418 ft | 11 kts | 260° |
| 2026-05-08 06:26 | 31.72686 | 35.98975 | 2418 ft | 19 kts | 260° |
| 2026-05-08 06:26 | 31.72663 | 35.98818 | 2416 ft | 20 kts | 260° |
| 2026-05-08 06:26 | 31.72638 | 35.98650 | 2418 ft | 22 kts | 261° |
| 2026-05-08 06:27 | 31.72613 | 35.98471 | 2418 ft | 23 kts | 260° |
| 2026-05-08 06:27 | 31.72586 | 35.98280 | 2418 ft | 24 kts | 261° |
| 2026-05-08 06:27 | 31.72556 | 35.98080 | 2418 ft | 25 kts | 260° |
| 2026-05-08 06:27 | 31.72526 | 35.97872 | 2418 ft | 26 kts | 260° |
| 2026-05-08 06:28 | 31.72499 | 35.97680 | 2418 ft | 24 kts | 261° |
| 2026-05-08 06:28 | 31.72471 | 35.97485 | 2418 ft | 25 kts | 260° |
| 2026-05-08 06:28 | 31.72442 | 35.97284 | 2418 ft | 20 kts | 260° |
| 2026-05-08 06:28 | 31.72421 | 35.97139 | 2418 ft | 14 kts | 261° |
| 2026-05-08 06:29 | 31.72423 | 35.97053 | 2418 ft | 9 kts | 301° |
| 2026-05-08 06:29 | 31.72473 | 35.97019 | 2417 ft | 8 kts | 343° |
| 2026-05-08 06:29 | 31.72518 | 35.97006 | 2418 ft | 6 kts | 352° |
| 2026-05-08 06:29 | 31.72564 | 35.96999 | 2419 ft | 7 kts | 353° |
| 2026-05-08 06:30 | 31.72604 | 35.96993 | 2420 ft | 7 kts | 353° |
| 2026-05-08 06:30 | 31.72650 | 35.96990 | 2420 ft | 7 kts | 8° |
| 2026-05-08 06:30 | 31.72706 | 35.97122 | 2421 ft | 44 kts | 79° |
| 2026-05-08 06:30 | 31.72794 | 35.97767 | 2417 ft | 112 kts | 80° |
| 2026-05-08 06:31 | 31.72956 | 35.98878 | 2423 ft | 163 kts | 80° |
| 2026-05-08 06:31 | 31.73177 | 36.00258 | 2827 ft | 176 kts | 77° |
| 2026-05-08 06:31 | 31.73502 | 36.01678 | 3461 ft | 182 kts | 76° |
| 2026-05-08 06:31 | 31.73755 | 36.03133 | 4101 ft | 181 kts | 81° |
| 2026-05-08 06:32 | 31.73940 | 36.04647 | 4509 ft | 197 kts | 82° |
| 2026-05-08 06:32 | 31.74130 | 36.06308 | 4841 ft | 216 kts | 77° |
| 2026-05-08 06:32 | 31.74936 | 36.07857 | 5166 ft | 234 kts | 36° |
| 2026-05-08 06:32 | 31.76442 | 36.08645 | 5845 ft | 243 kts | 15° |
| 2026-05-08 06:33 | 31.78118 | 36.09035 | 6558 ft | 249 kts | 10° |
| 2026-05-08 06:33 | 31.79854 | 36.09378 | 7242 ft | 256 kts | 11° |
| 2026-05-08 06:33 | 31.81625 | 36.09783 | 7946 ft | 264 kts | 13° |
| 2026-05-08 06:33 | 31.83418 | 36.10269 | 8766 ft | 264 kts | 15° |
| 2026-05-08 06:34 | 31.85194 | 36.10809 | 9569 ft | 265 kts | 14° |
| 2026-05-08 06:34 | 31.87032 | 36.10815 | 10252 ft | 269 kts | 341° |
| 2026-05-08 06:34 | 31.88619 | 36.09710 | 10924 ft | 272 kts | 313° |
| 2026-05-08 06:34 | 31.89578 | 36.07738 | 11185 ft | 290 kts | 281° |
| 2026-05-08 06:35 | 31.89920 | 36.05335 | 11717 ft | 302 kts | 279° |
| 2026-05-08 06:35 | 31.90330 | 36.02882 | 12440 ft | 307 kts | 281° |
| 2026-05-08 06:35 | 31.90770 | 36.00420 | 13310 ft | 308 kts | 281° |
| 2026-05-08 06:35 | 31.91214 | 35.97947 | 14068 ft | 311 kts | 282° |
| 2026-05-08 06:36 | 31.91533 | 35.95424 | 14770 ft | 314 kts | 272° |
| 2026-05-08 06:36 | 31.91423 | 35.92786 | 15057 ft | 333 kts | 264° |
| 2026-05-08 06:36 | 31.91154 | 35.89984 | 15184 ft | 355 kts | 264° |
| 2026-05-08 06:36 | 31.90849 | 35.87037 | 15427 ft | 370 kts | 263° |
| 2026-05-08 06:37 | 31.90524 | 35.84004 | 15953 ft | 376 kts | 263° |
| 2026-05-08 06:37 | 31.90195 | 35.80929 | 16547 ft | 381 kts | 264° |
| 2026-05-08 06:37 | 31.89869 | 35.77819 | 17138 ft | 384 kts | 264° |
| 2026-05-08 06:37 | 31.89519 | 35.74687 | 17732 ft | 388 kts | 261° |
| 2026-05-08 06:38 | 31.88791 | 35.71613 | 18286 ft | 394 kts | 250° |
| 2026-05-08 06:38 | 31.87619 | 35.68671 | 18865 ft | 399 kts | 245° |
| 2026-05-08 06:38 | 31.86371 | 35.65751 | 19422 ft | 402 kts | 245° |
| 2026-05-08 06:38 | 31.85112 | 35.62799 | 19966 ft | 405 kts | 245° |
| 2026-05-08 06:39 | 31.83920 | 35.59787 | 20484 ft | 408 kts | 251° |
| 2026-05-08 06:39 | 31.83158 | 35.56571 | 20987 ft | 409 kts | 262° |
| 2026-05-08 06:39 | 31.82900 | 35.53244 | 21471 ft | 410 kts | 271° |
| 2026-05-08 06:39 | 31.83134 | 35.49907 | 21940 ft | 411 kts | 281° |
| 2026-05-08 06:40 | 31.83815 | 35.46636 | 22406 ft | 412 kts | 289° |
| 2026-05-08 06:40 | 31.84764 | 35.43447 | 22841 ft | 415 kts | 290° |
| 2026-05-08 06:40 | 31.85724 | 35.40225 | 23249 ft | 418 kts | 290° |
| 2026-05-08 06:40 | 31.86688 | 35.36986 | 23670 ft | 420 kts | 290° |
| 2026-05-08 06:41 | 31.87659 | 35.33731 | 24068 ft | 422 kts | 290° |
| 2026-05-08 06:41 | 31.88636 | 35.30465 | 24460 ft | 425 kts | 290° |
| 2026-05-08 06:41 | 31.89620 | 35.27171 | 24836 ft | 427 kts | 290° |
| 2026-05-08 06:41 | 31.90608 | 35.23863 | 25200 ft | 429 kts | 290° |
| 2026-05-08 06:42 | 31.91593 | 35.20543 | 25560 ft | 431 kts | 290° |
| 2026-05-08 06:42 | 31.92578 | 35.17201 | 25906 ft | 433 kts | 289° |
| 2026-05-08 06:42 | 31.93563 | 35.13843 | 26247 ft | 435 kts | 289° |
| 2026-05-08 06:42 | 31.94543 | 35.10508 | 26573 ft | 437 kts | 289° |
| 2026-05-08 06:43 | 31.95543 | 35.07124 | 26876 ft | 439 kts | 289° |
| 2026-05-08 06:43 | 31.96553 | 35.03720 | 27168 ft | 441 kts | 289° |
| 2026-05-08 06:43 | 31.97579 | 35.00258 | 27451 ft | 443 kts | 289° |
| 2026-05-08 06:43 | 31.98595 | 34.96822 | 27741 ft | 445 kts | 289° |
| 2026-05-08 06:44 | 31.99609 | 34.93373 | 28012 ft | 446 kts | 289° |
| 2026-05-08 06:44 | 32.00618 | 34.89907 | 28277 ft | 448 kts | 287° |
| 2026-05-08 06:44 | 32.01322 | 34.86326 | 28510 ft | 449 kts | 278° |
| 2026-05-08 06:44 | 32.01589 | 34.82706 | 28740 ft | 451 kts | 274° |
| 2026-05-08 06:45 | 32.01785 | 34.79013 | 28977 ft | 452 kts | 274° |
| 2026-05-08 06:45 | 32.01987 | 34.75322 | 29275 ft | 451 kts | 274° |
| 2026-05-08 06:45 | 32.02192 | 34.71641 | 29586 ft | 450 kts | 274° |
| 2026-05-08 06:45 | 32.02397 | 34.67964 | 29888 ft | 449 kts | 274° |
| 2026-05-08 06:46 | 32.02601 | 34.64294 | 30074 ft | 449 kts | 274° |
| 2026-05-08 06:46 | 32.03019 | 34.60672 | 30114 ft | 446 kts | 287° |
| 2026-05-08 06:46 | 32.04398 | 34.57409 | 30113 ft | 448 kts | 306° |
| 2026-05-08 06:46 | 32.06562 | 34.54772 | 30109 ft | 451 kts | 320° |
| 2026-05-08 06:47 | 32.09181 | 34.52729 | 30110 ft | 454 kts | 331° |
| 2026-05-08 06:47 | 32.12119 | 34.51345 | 30111 ft | 457 kts | 343° |
| 2026-05-08 06:47 | 32.18420 | 34.50199 | 30110 ft | 459 kts | 351° |
| 2026-05-08 06:48 | 32.23706 | 34.49482 | 30106 ft | 459 kts | 352° |
| 2026-05-08 06:48 | 32.30013 | 34.48163 | 30103 ft | 456 kts | 339° |
| 2026-05-08 06:49 | 32.35554 | 34.44695 | 30100 ft | 451 kts | 320° |
| 2026-05-08 06:49 | 32.40081 | 34.39659 | 30110 ft | 452 kts | 314° |
| 2026-05-08 06:50 | 32.44620 | 34.34362 | 30111 ft | 463 kts | 314° |
| 2026-05-08 06:50 | 32.49241 | 34.28970 | 30103 ft | 468 kts | 314° |
| 2026-05-08 06:51 | 32.54490 | 34.24416 | 30109 ft | 472 kts | 332° |
| 2026-05-08 06:51 | 32.60807 | 34.22267 | 30113 ft | 477 kts | 352° |
| 2026-05-08 06:52 | 32.67419 | 34.21529 | 30109 ft | 477 kts | 353° |
| 2026-05-08 06:52 | 32.74027 | 34.20768 | 30112 ft | 477 kts | 352° |
| 2026-05-08 06:53 | 32.80624 | 34.20001 | 30112 ft | 476 kts | 352° |
| 2026-05-08 06:53 | 32.87217 | 34.19246 | 30113 ft | 476 kts | 352° |
| 2026-05-08 06:54 | 32.93806 | 34.18493 | 30117 ft | 475 kts | 352° |
| 2026-05-08 06:54 | 33.00382 | 34.17740 | 30121 ft | 474 kts | 352° |
| 2026-05-08 06:55 | 33.06948 | 34.16991 | 30117 ft | 474 kts | 352° |
| 2026-05-08 06:55 | 33.13508 | 34.16241 | 30117 ft | 473 kts | 352° |
| 2026-05-08 06:56 | 33.20061 | 34.15482 | 30119 ft | 473 kts | 352° |
| 2026-05-08 06:56 | 33.26606 | 34.14728 | 30125 ft | 472 kts | 352° |
| 2026-05-08 06:57 | 33.33146 | 34.13971 | 30122 ft | 472 kts | 352° |
| 2026-05-08 06:57 | 33.39684 | 34.13211 | 30122 ft | 471 kts | 352° |
| 2026-05-08 06:58 | 33.46207 | 34.12456 | 30118 ft | 471 kts | 352° |
| 2026-05-08 06:58 | 33.52734 | 34.11701 | 30112 ft | 471 kts | 352° |
| 2026-05-08 06:59 | 33.59266 | 34.10943 | 30109 ft | 471 kts | 352° |
| 2026-05-08 06:59 | 33.65737 | 34.10194 | 30112 ft | 470 kts | 352° |
| 2026-05-08 07:00 | 33.72239 | 34.09437 | 29246 ft | 466 kts | 352° |
| 2026-05-08 07:00 | 33.75484 | 34.09059 | 27912 ft | 470 kts | 352° |
| 2026-05-08 07:00 | 33.78754 | 34.08677 | 26486 ft | 475 kts | 352° |
| 2026-05-08 07:01 | 33.82023 | 34.08059 | 24985 ft | 476 kts | 344° |
| 2026-05-08 07:01 | 33.85166 | 34.06865 | 23849 ft | 472 kts | 338° |
| 2026-05-08 07:01 | 33.88249 | 34.05555 | 22862 ft | 467 kts | 338° |
| 2026-05-08 07:01 | 33.91312 | 34.04272 | 22135 ft | 465 kts | 339° |
| 2026-05-08 07:02 | 33.94370 | 34.03002 | 21402 ft | 464 kts | 339° |
| 2026-05-08 07:02 | 33.97409 | 34.01741 | 20678 ft | 459 kts | 339° |
| 2026-05-08 07:02 | 34.00411 | 34.00490 | 19950 ft | 454 kts | 339° |
| 2026-05-08 07:02 | 34.03376 | 33.99250 | 19222 ft | 448 kts | 339° |
| 2026-05-08 07:03 | 34.06304 | 33.98022 | 18501 ft | 442 kts | 340° |
| 2026-05-08 07:03 | 34.09185 | 33.96811 | 17778 ft | 436 kts | 340° |
| 2026-05-08 07:03 | 34.12033 | 33.95611 | 17047 ft | 432 kts | 340° |
| 2026-05-08 07:03 | 34.14860 | 33.94417 | 16319 ft | 428 kts | 340° |
| 2026-05-08 07:04 | 34.17655 | 33.93238 | 15593 ft | 424 kts | 340° |
| 2026-05-08 07:04 | 34.20422 | 33.92069 | 14856 ft | 420 kts | 340° |
| 2026-05-08 07:04 | 34.23175 | 33.90908 | 14140 ft | 417 kts | 340° |
| 2026-05-08 07:04 | 34.25906 | 33.89759 | 13455 ft | 414 kts | 340° |
| 2026-05-08 07:05 | 34.28621 | 33.88614 | 13194 ft | 413 kts | 340° |
| 2026-05-08 07:05 | 34.31330 | 33.87470 | 13116 ft | 413 kts | 340° |
| 2026-05-08 07:05 | 34.34040 | 33.86301 | 13119 ft | 413 kts | 339° |
| 2026-05-08 07:05 | 34.36665 | 33.85018 | 12803 ft | 400 kts | 336° |
| 2026-05-08 07:06 | 34.39154 | 33.83611 | 12293 ft | 391 kts | 333° |
| 2026-05-08 07:06 | 34.41513 | 33.82053 | 11806 ft | 382 kts | 329° |
| 2026-05-08 07:06 | 34.43732 | 33.80346 | 11267 ft | 374 kts | 326° |